sensor_id;sensor_type;location;lat;lon;timestamp;temperature;humidity
23089;DHT22;11713;48.506;8.966;2023-01-04T00:01:14;2.20;99.90
23089;DHT22;11713;48.506;8.966;2023-01-04T00:03:41;2.20;99.90
23089;DHT22;11713;48.506;8.966;2023-01-04T00:06:10;2.20;99.90
23089;DHT22;11713;48.506;8.966;2023-01-04T00:08:36;2.20;99.90
23089;DHT22;11713;48.506;8.966;2023-01-04T00:11:05;2.30;99.90
23089;DHT22;11713;48.506;8.966;2023-01-04T00:13:31;2.30;99.90
23089;DHT22;11713;48.506;8.966;2023-01-04T00:15:58;2.30;99.90
23089;DHT22;11713;48.506;8.966;2023-01-04T00:18:29;2.30;99.90
23089;DHT22;11713;48.506;8.966;2023-01-04T00:23:38;2.40;99.90
23089;DHT22;11713;48.506;8.966;2023-01-04T00:26:12;2.40;99.90
23089;DHT22;11713;48.506;8.966;2023-01-04T00:28:38;2.40;99.90
23089;DHT22;11713;48.506;8.966;2023-01-04T00:31:06;2.40;99.90
23089;DHT22;11713;48.506;8.966;2023-01-04T00:33:33;2.30;99.90
23089;DHT22;11713;48.506;8.966;2023-01-04T00:36:10;2.30;99.90
23089;DHT22;11713;48.506;8.966;2023-01-04T00:38:37;2.20;99.90
23089;DHT22;11713;48.506;8.966;2023-01-04T00:41:04;2.20;99.90
23089;DHT22;11713;48.506;8.966;2023-01-04T00:43:31;2.20;99.90
23089;DHT22;11713;48.506;8.966;2023-01-04T00:45:57;2.20;99.90
23089;DHT22;11713;48.506;8.966;2023-01-04T00:48:23;2.20;99.90
23089;DHT22;11713;48.506;8.966;2023-01-04T00:50:49;2.10;99.90
23089;DHT22;11713;48.506;8.966;2023-01-04T00:53:16;2.10;99.90
23089;DHT22;11713;48.506;8.966;2023-01-04T00:55:42;2.10;99.90
23089;DHT22;11713;48.506;8.966;2023-01-04T00:58:09;2.00;99.90
23089;DHT22;11713;48.506;8.966;2023-01-04T01:00:35;2.00;99.90
23089;DHT22;11713;48.506;8.966;2023-01-04T01:03:01;2.10;99.90
23089;DHT22;11713;48.506;8.966;2023-01-04T01:05:27;2.10;99.90
23089;DHT22;11713;48.506;8.966;2023-01-04T01:07:53;2.20;99.90
23089;DHT22;11713;48.506;8.966;2023-01-04T01:10:19;2.20;99.90
23089;DHT22;11713;48.506;8.966;2023-01-04T01:12:44;2.30;99.90
23089;DHT22;11713;48.506;8.966;2023-01-04T01:15:10;2.20;99.90
23089;DHT22;11713;48.506;8.966;2023-01-04T01:17:36;2.30;99.90
23089;DHT22;11713;48.506;8.966;2023-01-04T01:20:03;2.30;99.90
23089;DHT22;11713;48.506;8.966;2023-01-04T01:22:30;2.30;99.90
23089;DHT22;11713;48.506;8.966;2023-01-04T01:24:56;2.30;99.90
23089;DHT22;11713;48.506;8.966;2023-01-04T01:27:22;2.30;99.90
23089;DHT22;11713;48.506;8.966;2023-01-04T01:29:48;2.20;99.90
23089;DHT22;11713;48.506;8.966;2023-01-04T01:32:14;2.10;99.90
23089;DHT22;11713;48.506;8.966;2023-01-04T01:34:39;2.00;99.90
23089;DHT22;11713;48.506;8.966;2023-01-04T01:37:05;2.00;99.90
23089;DHT22;11713;48.506;8.966;2023-01-04T01:39:31;1.90;99.90
23089;DHT22;11713;48.506;8.966;2023-01-04T01:41:57;1.90;99.90
23089;DHT22;11713;48.506;8.966;2023-01-04T01:49:42;2.10;99.90
23089;DHT22;11713;48.506;8.966;2023-01-04T01:52:25;2.10;99.90
23089;DHT22;11713;48.506;8.966;2023-01-04T01:54:56;2.20;99.90
23089;DHT22;11713;48.506;8.966;2023-01-04T01:57:25;2.20;99.90
23089;DHT22;11713;48.506;8.966;2023-01-04T01:59:55;2.20;99.90
23089;DHT22;11713;48.506;8.966;2023-01-04T02:02:23;2.20;99.90
23089;DHT22;11713;48.506;8.966;2023-01-04T02:04:53;2.10;99.90
23089;DHT22;11713;48.506;8.966;2023-01-04T02:07:23;1.80;99.90
23089;DHT22;11713;48.506;8.966;2023-01-04T02:09:50;1.60;99.90
23089;DHT22;11713;48.506;8.966;2023-01-04T02:12:16;1.60;99.90
23089;DHT22;11713;48.506;8.966;2023-01-04T02:14:43;1.50;99.90
23089;DHT22;11713;48.506;8.966;2023-01-04T02:17:20;1.40;99.90
23089;DHT22;11713;48.506;8.966;2023-01-04T02:20:24;1.40;99.90
23089;DHT22;11713;48.506;8.966;2023-01-04T02:34:11;1.50;99.90
23089;DHT22;11713;48.506;8.966;2023-01-04T02:36:56;1.50;99.90
23089;DHT22;11713;48.506;8.966;2023-01-04T02:44:46;1.40;99.90
23089;DHT22;11713;48.506;8.966;2023-01-04T02:50:24;1.40;99.90
23089;DHT22;11713;48.506;8.966;2023-01-04T02:52:59;1.40;99.90
23089;DHT22;11713;48.506;8.966;2023-01-04T02:55:31;1.30;99.90
23089;DHT22;11713;48.506;8.966;2023-01-04T02:58:08;1.20;99.90
23089;DHT22;11713;48.506;8.966;2023-01-04T03:01:00;1.10;99.90
23089;DHT22;11713;48.506;8.966;2023-01-04T03:04:00;1.00;99.90
23089;DHT22;11713;48.506;8.966;2023-01-04T03:07:00;1.10;99.90
23089;DHT22;11713;48.506;8.966;2023-01-04T03:09:30;1.10;99.90
23089;DHT22;11713;48.506;8.966;2023-01-04T03:12:03;1.10;99.90
23089;DHT22;11713;48.506;8.966;2023-01-04T03:15:12;1.20;99.90
23089;DHT22;11713;48.506;8.966;2023-01-04T03:17:50;1.20;99.90
23089;DHT22;11713;48.506;8.966;2023-01-04T03:20:18;1.20;99.90
23089;DHT22;11713;48.506;8.966;2023-01-04T03:22:54;1.20;99.90
23089;DHT22;11713;48.506;8.966;2023-01-04T03:25:43;1.20;99.90
23089;DHT22;11713;48.506;8.966;2023-01-04T03:28:32;1.30;99.90
23089;DHT22;11713;48.506;8.966;2023-01-04T03:31:32;1.40;99.90
23089;DHT22;11713;48.506;8.966;2023-01-04T03:34:17;1.40;99.90
23089;DHT22;11713;48.506;8.966;2023-01-04T03:43:15;1.40;99.90
23089;DHT22;11713;48.506;8.966;2023-01-04T03:46:17;1.30;99.90
23089;DHT22;11713;48.506;8.966;2023-01-04T03:49:14;1.30;99.90
23089;DHT22;11713;48.506;8.966;2023-01-04T03:51:42;1.30;99.90
23089;DHT22;11713;48.506;8.966;2023-01-04T03:54:18;1.20;99.90
23089;DHT22;11713;48.506;8.966;2023-01-04T03:56:47;1.20;99.90
23089;DHT22;11713;48.506;8.966;2023-01-04T03:59:14;1.20;99.90
23089;DHT22;11713;48.506;8.966;2023-01-04T04:01:42;1.10;99.90
23089;DHT22;11713;48.506;8.966;2023-01-04T04:04:08;0.90;99.90
23089;DHT22;11713;48.506;8.966;2023-01-04T04:06:53;0.80;99.90
23089;DHT22;11713;48.506;8.966;2023-01-04T04:09:37;0.90;99.90
23089;DHT22;11713;48.506;8.966;2023-01-04T04:12:03;1.10;99.90
23089;DHT22;11713;48.506;8.966;2023-01-04T04:14:29;1.20;99.90
23089;DHT22;11713;48.506;8.966;2023-01-04T04:16:54;1.30;99.90
23089;DHT22;11713;48.506;8.966;2023-01-04T04:19:20;1.40;99.90
23089;DHT22;11713;48.506;8.966;2023-01-04T04:21:46;1.50;99.90
23089;DHT22;11713;48.506;8.966;2023-01-04T04:24:18;1.50;99.90
23089;DHT22;11713;48.506;8.966;2023-01-04T04:26:44;1.50;99.90
23089;DHT22;11713;48.506;8.966;2023-01-04T04:29:10;1.50;99.90
23089;DHT22;11713;48.506;8.966;2023-01-04T04:31:35;1.40;99.90
23089;DHT22;11713;48.506;8.966;2023-01-04T04:34:02;1.40;99.90
23089;DHT22;11713;48.506;8.966;2023-01-04T04:36:27;1.30;99.90
23089;DHT22;11713;48.506;8.966;2023-01-04T04:38:53;1.20;99.90
23089;DHT22;11713;48.506;8.966;2023-01-04T04:41:19;1.10;99.90
23089;DHT22;11713;48.506;8.966;2023-01-04T04:44:07;1.10;99.90
23089;DHT22;11713;48.506;8.966;2023-01-04T04:46:33;1.10;99.90
23089;DHT22;11713;48.506;8.966;2023-01-04T04:49:00;1.20;99.90
23089;DHT22;11713;48.506;8.966;2023-01-04T04:51:25;1.20;99.90
23089;DHT22;11713;48.506;8.966;2023-01-04T04:53:51;1.20;99.90
23089;DHT22;11713;48.506;8.966;2023-01-04T04:56:17;1.20;99.90
23089;DHT22;11713;48.506;8.966;2023-01-04T04:58:43;1.30;99.90
23089;DHT22;11713;48.506;8.966;2023-01-04T05:01:09;1.40;99.90
23089;DHT22;11713;48.506;8.966;2023-01-04T05:03:35;1.50;99.90
23089;DHT22;11713;48.506;8.966;2023-01-04T05:06:01;1.50;99.90
23089;DHT22;11713;48.506;8.966;2023-01-04T05:08:27;1.50;99.90
23089;DHT22;11713;48.506;8.966;2023-01-04T05:10:53;1.50;99.90
23089;DHT22;11713;48.506;8.966;2023-01-04T05:13:18;1.50;99.90
23089;DHT22;11713;48.506;8.966;2023-01-04T05:15:47;1.50;99.90
23089;DHT22;11713;48.506;8.966;2023-01-04T05:18:15;1.60;99.90
23089;DHT22;11713;48.506;8.966;2023-01-04T05:20:42;1.60;99.90
23089;DHT22;11713;48.506;8.966;2023-01-04T05:23:09;1.60;99.90
23089;DHT22;11713;48.506;8.966;2023-01-04T05:25:36;1.70;99.90
23089;DHT22;11713;48.506;8.966;2023-01-04T05:28:02;1.70;99.90
23089;DHT22;11713;48.506;8.966;2023-01-04T05:30:28;1.70;99.90
23089;DHT22;11713;48.506;8.966;2023-01-04T05:33:12;1.80;99.90
23089;DHT22;11713;48.506;8.966;2023-01-04T05:35:38;1.80;99.90
23089;DHT22;11713;48.506;8.966;2023-01-04T05:38:04;1.80;99.90
23089;DHT22;11713;48.506;8.966;2023-01-04T05:40:30;1.80;99.90
23089;DHT22;11713;48.506;8.966;2023-01-04T05:42:55;1.80;99.90
23089;DHT22;11713;48.506;8.966;2023-01-04T05:45:21;1.80;99.90
23089;DHT22;11713;48.506;8.966;2023-01-04T05:47:51;1.80;99.90
23089;DHT22;11713;48.506;8.966;2023-01-04T05:50:19;1.80;99.90
23089;DHT22;11713;48.506;8.966;2023-01-04T05:52:45;1.80;99.90
23089;DHT22;11713;48.506;8.966;2023-01-04T05:55:11;1.80;99.90
23089;DHT22;11713;48.506;8.966;2023-01-04T05:57:37;1.90;99.90
23089;DHT22;11713;48.506;8.966;2023-01-04T06:00:05;1.90;99.90
23089;DHT22;11713;48.506;8.966;2023-01-04T06:02:38;1.90;99.90
23089;DHT22;11713;48.506;8.966;2023-01-04T06:05:04;2.00;99.90
23089;DHT22;11713;48.506;8.966;2023-01-04T06:07:31;2.00;99.90
23089;DHT22;11713;48.506;8.966;2023-01-04T06:09:57;2.00;99.90
23089;DHT22;11713;48.506;8.966;2023-01-04T06:12:23;2.00;99.90
23089;DHT22;11713;48.506;8.966;2023-01-04T06:14:50;2.00;99.90
23089;DHT22;11713;48.506;8.966;2023-01-04T06:17:15;2.00;99.90
23089;DHT22;11713;48.506;8.966;2023-01-04T06:19:41;2.00;99.90
23089;DHT22;11713;48.506;8.966;2023-01-04T06:22:07;2.00;99.90
23089;DHT22;11713;48.506;8.966;2023-01-04T06:24:33;2.00;99.90
23089;DHT22;11713;48.506;8.966;2023-01-04T06:26:59;2.10;99.90
23089;DHT22;11713;48.506;8.966;2023-01-04T06:29:25;2.00;99.90
23089;DHT22;11713;48.506;8.966;2023-01-04T06:31:51;2.00;99.90
23089;DHT22;11713;48.506;8.966;2023-01-04T06:34:17;2.00;99.90
23089;DHT22;11713;48.506;8.966;2023-01-04T06:36:43;2.00;99.90
23089;DHT22;11713;48.506;8.966;2023-01-04T06:39:09;2.10;99.90
23089;DHT22;11713;48.506;8.966;2023-01-04T06:41:35;2.20;99.90
23089;DHT22;11713;48.506;8.966;2023-01-04T06:44:01;2.20;99.90
23089;DHT22;11713;48.506;8.966;2023-01-04T06:46:27;2.40;99.90
23089;DHT22;11713;48.506;8.966;2023-01-04T06:48:53;2.50;99.90
23089;DHT22;11713;48.506;8.966;2023-01-04T06:51:22;2.60;99.90
23089;DHT22;11713;48.506;8.966;2023-01-04T06:53:48;2.70;99.90
23089;DHT22;11713;48.506;8.966;2023-01-04T06:56:14;2.80;99.90
23089;DHT22;11713;48.506;8.966;2023-01-04T06:58:40;2.90;99.90
23089;DHT22;11713;48.506;8.966;2023-01-04T07:01:06;3.00;99.90
23089;DHT22;11713;48.506;8.966;2023-01-04T07:03:31;3.10;99.90
23089;DHT22;11713;48.506;8.966;2023-01-04T07:05:57;3.20;99.90
23089;DHT22;11713;48.506;8.966;2023-01-04T07:08:24;3.30;99.90
23089;DHT22;11713;48.506;8.966;2023-01-04T07:10:50;3.30;99.90
23089;DHT22;11713;48.506;8.966;2023-01-04T07:13:16;3.40;99.90
23089;DHT22;11713;48.506;8.966;2023-01-04T07:15:42;3.50;99.90
23089;DHT22;11713;48.506;8.966;2023-01-04T07:18:09;3.60;99.90
23089;DHT22;11713;48.506;8.966;2023-01-04T07:20:36;3.70;99.90
23089;DHT22;11713;48.506;8.966;2023-01-04T07:23:02;3.70;99.90
23089;DHT22;11713;48.506;8.966;2023-01-04T07:25:28;3.80;99.90
23089;DHT22;11713;48.506;8.966;2023-01-04T07:27:54;3.90;99.90
23089;DHT22;11713;48.506;8.966;2023-01-04T07:30:21;4.00;99.90
23089;DHT22;11713;48.506;8.966;2023-01-04T07:32:48;4.20;99.90
23089;DHT22;11713;48.506;8.966;2023-01-04T07:35:13;4.30;99.90
23089;DHT22;11713;48.506;8.966;2023-01-04T07:37:41;4.40;99.90
23089;DHT22;11713;48.506;8.966;2023-01-04T07:40:08;4.50;99.90
23089;DHT22;11713;48.506;8.966;2023-01-04T07:42:34;4.50;99.90
23089;DHT22;11713;48.506;8.966;2023-01-04T07:45:00;4.50;99.90
23089;DHT22;11713;48.506;8.966;2023-01-04T07:47:27;4.60;99.90
23089;DHT22;11713;48.506;8.966;2023-01-04T07:49:53;4.60;99.90
23089;DHT22;11713;48.506;8.966;2023-01-04T07:52:19;4.50;99.90
23089;DHT22;11713;48.506;8.966;2023-01-04T07:54:44;4.60;99.90
23089;DHT22;11713;48.506;8.966;2023-01-04T07:57:10;4.60;99.90
23089;DHT22;11713;48.506;8.966;2023-01-04T07:59:36;4.70;99.90
23089;DHT22;11713;48.506;8.966;2023-01-04T08:02:02;4.70;99.90
23089;DHT22;11713;48.506;8.966;2023-01-04T08:04:28;4.70;99.90
23089;DHT22;11713;48.506;8.966;2023-01-04T08:06:53;4.80;99.90
23089;DHT22;11713;48.506;8.966;2023-01-04T08:09:19;4.80;99.90
23089;DHT22;11713;48.506;8.966;2023-01-04T08:11:45;4.90;99.90
23089;DHT22;11713;48.506;8.966;2023-01-04T08:14:11;4.90;99.90
23089;DHT22;11713;48.506;8.966;2023-01-04T08:16:39;4.90;99.90
23089;DHT22;11713;48.506;8.966;2023-01-04T08:19:09;5.00;99.90
23089;DHT22;11713;48.506;8.966;2023-01-04T08:21:36;5.00;99.90
23089;DHT22;11713;48.506;8.966;2023-01-04T08:24:02;5.10;99.90
23089;DHT22;11713;48.506;8.966;2023-01-04T08:26:29;5.20;99.90
23089;DHT22;11713;48.506;8.966;2023-01-04T08:28:55;5.20;99.90
23089;DHT22;11713;48.506;8.966;2023-01-04T08:31:30;5.30;99.90
23089;DHT22;11713;48.506;8.966;2023-01-04T08:33:57;5.40;99.90
23089;DHT22;11713;48.506;8.966;2023-01-04T08:36:28;5.40;99.90
23089;DHT22;11713;48.506;8.966;2023-01-04T08:38:56;5.50;99.90
23089;DHT22;11713;48.506;8.966;2023-01-04T08:41:22;5.50;99.90
23089;DHT22;11713;48.506;8.966;2023-01-04T08:43:48;5.50;99.90
23089;DHT22;11713;48.506;8.966;2023-01-04T08:46:14;5.60;99.90
23089;DHT22;11713;48.506;8.966;2023-01-04T08:48:40;5.70;99.90
23089;DHT22;11713;48.506;8.966;2023-01-04T08:51:09;5.80;99.90
23089;DHT22;11713;48.506;8.966;2023-01-04T08:53:36;5.90;99.90
23089;DHT22;11713;48.506;8.966;2023-01-04T08:56:02;6.00;99.90
23089;DHT22;11713;48.506;8.966;2023-01-04T08:58:30;6.00;99.90
23089;DHT22;11713;48.506;8.966;2023-01-04T09:01:00;6.10;99.90
23089;DHT22;11713;48.506;8.966;2023-01-04T09:03:27;6.10;99.90
23089;DHT22;11713;48.506;8.966;2023-01-04T09:05:53;6.10;99.90
23089;DHT22;11713;48.506;8.966;2023-01-04T09:08:19;6.20;99.90
23089;DHT22;11713;48.506;8.966;2023-01-04T09:10:45;6.30;99.90
23089;DHT22;11713;48.506;8.966;2023-01-04T09:13:10;6.40;99.90
23089;DHT22;11713;48.506;8.966;2023-01-04T09:15:36;6.40;99.90
23089;DHT22;11713;48.506;8.966;2023-01-04T09:18:02;6.40;99.90
23089;DHT22;11713;48.506;8.966;2023-01-04T09:20:29;6.50;99.90
23089;DHT22;11713;48.506;8.966;2023-01-04T09:22:56;6.50;99.90
23089;DHT22;11713;48.506;8.966;2023-01-04T09:25:23;6.50;99.90
23089;DHT22;11713;48.506;8.966;2023-01-04T09:27:48;6.60;99.90
23089;DHT22;11713;48.506;8.966;2023-01-04T09:30:14;6.60;99.90
23089;DHT22;11713;48.506;8.966;2023-01-04T09:32:40;6.70;99.90
23089;DHT22;11713;48.506;8.966;2023-01-04T09:35:06;6.70;99.90
23089;DHT22;11713;48.506;8.966;2023-01-04T09:37:32;6.70;99.90
23089;DHT22;11713;48.506;8.966;2023-01-04T09:39:58;6.80;99.90
23089;DHT22;11713;48.506;8.966;2023-01-04T09:42:35;6.80;99.90
23089;DHT22;11713;48.506;8.966;2023-01-04T09:45:16;6.80;99.90
23089;DHT22;11713;48.506;8.966;2023-01-04T09:50:31;6.90;99.90
23089;DHT22;11713;48.506;8.966;2023-01-04T09:53:03;7.00;99.90
23089;DHT22;11713;48.506;8.966;2023-01-04T09:55:37;7.00;99.90
23089;DHT22;11713;48.506;8.966;2023-01-04T10:00:47;7.00;99.90
23089;DHT22;11713;48.506;8.966;2023-01-04T10:03:19;7.10;99.90
23089;DHT22;11713;48.506;8.966;2023-01-04T10:05:46;7.20;99.90
23089;DHT22;11713;48.506;8.966;2023-01-04T10:08:15;7.20;99.90
23089;DHT22;11713;48.506;8.966;2023-01-04T10:11:06;7.30;99.90
23089;DHT22;11713;48.506;8.966;2023-01-04T10:16:43;7.30;99.90
23089;DHT22;11713;48.506;8.966;2023-01-04T10:32:38;7.30;99.90
23089;DHT22;11713;48.506;8.966;2023-01-04T10:35:24;7.30;99.90
23089;DHT22;11713;48.506;8.966;2023-01-04T10:37:56;7.30;99.90
23089;DHT22;11713;48.506;8.966;2023-01-04T10:40:22;7.30;99.90
23089;DHT22;11713;48.506;8.966;2023-01-04T10:43:09;7.30;99.90
23089;DHT22;11713;48.506;8.966;2023-01-04T10:45:55;7.30;99.90
23089;DHT22;11713;48.506;8.966;2023-01-04T10:48:52;7.30;99.90
23089;DHT22;11713;48.506;8.966;2023-01-04T10:51:43;7.30;99.90
23089;DHT22;11713;48.506;8.966;2023-01-04T10:57:06;7.50;99.90
23089;DHT22;11713;48.506;8.966;2023-01-04T10:59:43;7.50;99.90
23089;DHT22;11713;48.506;8.966;2023-01-04T11:03:06;7.60;99.90
23089;DHT22;11713;48.506;8.966;2023-01-04T11:05:36;7.60;99.90
23089;DHT22;11713;48.506;8.966;2023-01-04T11:08:12;7.70;99.90
23089;DHT22;11713;48.506;8.966;2023-01-04T11:10:47;7.70;99.90
23089;DHT22;11713;48.506;8.966;2023-01-04T11:13:15;7.70;99.90
23089;DHT22;11713;48.506;8.966;2023-01-04T11:15:41;7.80;99.90
23089;DHT22;11713;48.506;8.966;2023-01-04T11:18:09;7.80;99.90
23089;DHT22;11713;48.506;8.966;2023-01-04T11:20:39;7.80;99.90
23089;DHT22;11713;48.506;8.966;2023-01-04T11:23:14;7.80;99.90
23089;DHT22;11713;48.506;8.966;2023-01-04T11:26:06;7.90;99.90
23089;DHT22;11713;48.506;8.966;2023-01-04T11:28:50;7.80;99.90
23089;DHT22;11713;48.506;8.966;2023-01-04T11:34:02;7.80;99.90
23089;DHT22;11713;48.506;8.966;2023-01-04T11:36:37;7.90;99.90
23089;DHT22;11713;48.506;8.966;2023-01-04T11:39:05;7.90;99.90
23089;DHT22;11713;48.506;8.966;2023-01-04T11:41:31;7.90;99.90
23089;DHT22;11713;48.506;8.966;2023-01-04T11:44:05;7.90;99.90
23089;DHT22;11713;48.506;8.966;2023-01-04T11:46:32;8.00;99.90
23089;DHT22;11713;48.506;8.966;2023-01-04T11:48:58;8.00;99.90
23089;DHT22;11713;48.506;8.966;2023-01-04T11:54:09;8.10;99.90
23089;DHT22;11713;48.506;8.966;2023-01-04T11:57:05;8.10;99.90
23089;DHT22;11713;48.506;8.966;2023-01-04T11:59:35;8.20;99.90
23089;DHT22;11713;48.506;8.966;2023-01-04T12:02:23;8.30;99.90
23089;DHT22;11713;48.506;8.966;2023-01-04T12:04:51;8.30;99.90
23089;DHT22;11713;48.506;8.966;2023-01-04T12:07:32;8.40;99.90
23089;DHT22;11713;48.506;8.966;2023-01-04T12:09:59;8.50;99.90
23089;DHT22;11713;48.506;8.966;2023-01-04T12:12:33;8.50;99.90
23089;DHT22;11713;48.506;8.966;2023-01-04T12:15:13;8.50;99.90
23089;DHT22;11713;48.506;8.966;2023-01-04T12:18:05;8.50;99.90
23089;DHT22;11713;48.506;8.966;2023-01-04T12:20:32;8.60;99.90
23089;DHT22;11713;48.506;8.966;2023-01-04T12:23:00;8.50;99.90
23089;DHT22;11713;48.506;8.966;2023-01-04T12:25:40;8.60;99.90
23089;DHT22;11713;48.506;8.966;2023-01-04T12:28:32;8.70;99.90
23089;DHT22;11713;48.506;8.966;2023-01-04T12:33:44;8.80;99.90
23089;DHT22;11713;48.506;8.966;2023-01-04T12:36:17;8.80;99.90
23089;DHT22;11713;48.506;8.966;2023-01-04T12:57:44;9.20;99.90
23089;DHT22;11713;48.506;8.966;2023-01-04T13:00:11;9.30;99.90
23089;DHT22;11713;48.506;8.966;2023-01-04T13:02:43;9.30;99.90
23089;DHT22;11713;48.506;8.966;2023-01-04T13:18:42;9.50;99.90
23089;DHT22;11713;48.506;8.966;2023-01-04T13:21:15;9.50;99.90
23089;DHT22;11713;48.506;8.966;2023-01-04T13:23:58;9.50;99.90
23089;DHT22;11713;48.506;8.966;2023-01-04T13:26:38;9.50;99.90
23089;DHT22;11713;48.506;8.966;2023-01-04T13:31:31;9.50;99.90
23089;DHT22;11713;48.506;8.966;2023-01-04T13:33:57;9.50;99.90
23089;DHT22;11713;48.506;8.966;2023-01-04T13:36:23;9.60;99.90
23089;DHT22;11713;48.506;8.966;2023-01-04T13:38:49;9.60;99.90
23089;DHT22;11713;48.506;8.966;2023-01-04T13:41:20;9.70;99.90
23089;DHT22;11713;48.506;8.966;2023-01-04T13:44:40;9.80;99.90
23089;DHT22;11713;48.506;8.966;2023-01-04T13:46:59;9.80;99.90
23089;DHT22;11713;48.506;8.966;2023-01-04T13:49:25;9.90;99.90
23089;DHT22;11713;48.506;8.966;2023-01-04T13:51:51;9.90;99.90
23089;DHT22;11713;48.506;8.966;2023-01-04T13:54:21;10.10;99.90
23089;DHT22;11713;48.506;8.966;2023-01-04T13:56:47;10.10;99.90
23089;DHT22;11713;48.506;8.966;2023-01-04T13:59:13;10.10;99.90
23089;DHT22;11713;48.506;8.966;2023-01-04T14:01:44;10.10;99.90
23089;DHT22;11713;48.506;8.966;2023-01-04T14:04:16;10.30;99.90
23089;DHT22;11713;48.506;8.966;2023-01-04T14:06:47;10.30;99.90
23089;DHT22;11713;48.506;8.966;2023-01-04T14:09:17;10.20;99.90
23089;DHT22;11713;48.506;8.966;2023-01-04T14:11:54;10.20;99.90
23089;DHT22;11713;48.506;8.966;2023-01-04T14:19:41;10.20;99.90
23089;DHT22;11713;48.506;8.966;2023-01-04T14:24:56;10.20;99.90
23089;DHT22;11713;48.506;8.966;2023-01-04T14:29:57;10.30;99.90
23089;DHT22;11713;48.506;8.966;2023-01-04T14:32:24;10.30;99.90
23089;DHT22;11713;48.506;8.966;2023-01-04T14:34:51;10.30;99.90
23089;DHT22;11713;48.506;8.966;2023-01-04T14:37:17;10.30;99.90
23089;DHT22;11713;48.506;8.966;2023-01-04T14:39:43;10.20;99.90
23089;DHT22;11713;48.506;8.966;2023-01-04T14:42:23;10.20;99.90
23089;DHT22;11713;48.506;8.966;2023-01-04T14:44:50;10.20;99.90
23089;DHT22;11713;48.506;8.966;2023-01-04T14:47:15;10.20;99.90
23089;DHT22;11713;48.506;8.966;2023-01-04T14:49:41;10.30;99.90
23089;DHT22;11713;48.506;8.966;2023-01-04T14:52:18;10.30;99.90
23089;DHT22;11713;48.506;8.966;2023-01-04T14:54:44;10.30;99.90
23089;DHT22;11713;48.506;8.966;2023-01-04T14:57:10;10.30;99.90
23089;DHT22;11713;48.506;8.966;2023-01-04T14:59:36;10.20;99.90
23089;DHT22;11713;48.506;8.966;2023-01-04T15:02:02;10.20;99.90
23089;DHT22;11713;48.506;8.966;2023-01-04T15:04:28;10.20;99.90
23089;DHT22;11713;48.506;8.966;2023-01-04T15:06:56;10.20;99.90
23089;DHT22;11713;48.506;8.966;2023-01-04T15:09:23;10.20;99.90
23089;DHT22;11713;48.506;8.966;2023-01-04T15:11:49;10.20;99.90
23089;DHT22;11713;48.506;8.966;2023-01-04T15:14:15;10.20;99.90
23089;DHT22;11713;48.506;8.966;2023-01-04T15:16:41;10.20;99.90
23089;DHT22;11713;48.506;8.966;2023-01-04T15:19:07;10.20;99.90
23089;DHT22;11713;48.506;8.966;2023-01-04T15:21:32;10.10;99.90
23089;DHT22;11713;48.506;8.966;2023-01-04T15:23:58;10.10;99.90
23089;DHT22;11713;48.506;8.966;2023-01-04T15:26:24;10.20;99.90
23089;DHT22;11713;48.506;8.966;2023-01-04T15:28:50;10.20;99.90
23089;DHT22;11713;48.506;8.966;2023-01-04T15:31:16;10.20;99.90
23089;DHT22;11713;48.506;8.966;2023-01-04T15:33:42;10.20;99.90
23089;DHT22;11713;48.506;8.966;2023-01-04T15:36:11;10.20;99.90
23089;DHT22;11713;48.506;8.966;2023-01-04T15:38:37;10.10;99.90
23089;DHT22;11713;48.506;8.966;2023-01-04T15:41:11;10.00;99.90
23089;DHT22;11713;48.506;8.966;2023-01-04T15:43:57;10.00;99.90
23089;DHT22;11713;48.506;8.966;2023-01-04T15:46:23;10.10;99.90
23089;DHT22;11713;48.506;8.966;2023-01-04T15:48:48;10.10;99.90
23089;DHT22;11713;48.506;8.966;2023-01-04T15:51:14;10.10;99.90
23089;DHT22;11713;48.506;8.966;2023-01-04T15:53:40;10.10;99.90
23089;DHT22;11713;48.506;8.966;2023-01-04T15:56:07;10.10;99.90
23089;DHT22;11713;48.506;8.966;2023-01-04T15:58:34;10.00;99.90
23089;DHT22;11713;48.506;8.966;2023-01-04T16:01:10;10.00;99.90
23089;DHT22;11713;48.506;8.966;2023-01-04T16:03:36;10.00;99.90
23089;DHT22;11713;48.506;8.966;2023-01-04T16:06:11;10.00;99.90
23089;DHT22;11713;48.506;8.966;2023-01-04T16:08:37;10.00;99.90
23089;DHT22;11713;48.506;8.966;2023-01-04T16:11:15;10.00;99.90
23089;DHT22;11713;48.506;8.966;2023-01-04T16:13:42;10.00;99.90
23089;DHT22;11713;48.506;8.966;2023-01-04T16:16:08;10.00;99.90
23089;DHT22;11713;48.506;8.966;2023-01-04T16:18:34;10.00;99.90
23089;DHT22;11713;48.506;8.966;2023-01-04T16:21:04;10.00;99.90
23089;DHT22;11713;48.506;8.966;2023-01-04T16:23:30;10.00;99.90
23089;DHT22;11713;48.506;8.966;2023-01-04T16:26:25;10.00;99.90
23089;DHT22;11713;48.506;8.966;2023-01-04T16:28:53;10.00;99.90
23089;DHT22;11713;48.506;8.966;2023-01-04T16:31:20;10.00;99.90
23089;DHT22;11713;48.506;8.966;2023-01-04T16:33:46;9.90;99.90
23089;DHT22;11713;48.506;8.966;2023-01-04T16:36:14;9.90;99.90
23089;DHT22;11713;48.506;8.966;2023-01-04T16:38:43;9.90;99.90
23089;DHT22;11713;48.506;8.966;2023-01-04T16:41:14;9.90;99.90
23089;DHT22;11713;48.506;8.966;2023-01-04T16:43:54;9.90;99.90
23089;DHT22;11713;48.506;8.966;2023-01-04T16:46:22;9.80;99.90
23089;DHT22;11713;48.506;8.966;2023-01-04T16:48:51;9.80;99.90
23089;DHT22;11713;48.506;8.966;2023-01-04T16:51:18;9.80;99.90
23089;DHT22;11713;48.506;8.966;2023-01-04T16:53:44;9.80;99.90
23089;DHT22;11713;48.506;8.966;2023-01-04T16:56:12;9.80;99.90
23089;DHT22;11713;48.506;8.966;2023-01-04T16:58:38;9.80;99.90
23089;DHT22;11713;48.506;8.966;2023-01-04T17:01:15;9.80;99.90
23089;DHT22;11713;48.506;8.966;2023-01-04T17:03:43;9.90;99.90
23089;DHT22;11713;48.506;8.966;2023-01-04T17:06:12;9.90;99.90
23089;DHT22;11713;48.506;8.966;2023-01-04T17:08:39;9.90;99.90
23089;DHT22;11713;48.506;8.966;2023-01-04T17:11:17;9.80;99.90
23089;DHT22;11713;48.506;8.966;2023-01-04T17:13:43;9.80;99.90
23089;DHT22;11713;48.506;8.966;2023-01-04T17:16:10;9.80;99.90
23089;DHT22;11713;48.506;8.966;2023-01-04T17:18:36;9.80;99.90
23089;DHT22;11713;48.506;8.966;2023-01-04T17:21:04;9.80;99.90
23089;DHT22;11713;48.506;8.966;2023-01-04T17:23:32;9.80;99.90
23089;DHT22;11713;48.506;8.966;2023-01-04T17:26:01;9.70;99.90
23089;DHT22;11713;48.506;8.966;2023-01-04T17:28:28;9.80;99.90
23089;DHT22;11713;48.506;8.966;2023-01-04T17:30:54;9.80;99.90
23089;DHT22;11713;48.506;8.966;2023-01-04T17:33:20;9.80;99.90
23089;DHT22;11713;48.506;8.966;2023-01-04T17:35:45;9.90;99.90
23089;DHT22;11713;48.506;8.966;2023-01-04T17:38:11;9.90;99.90
23089;DHT22;11713;48.506;8.966;2023-01-04T17:40:37;9.90;99.90
23089;DHT22;11713;48.506;8.966;2023-01-04T17:43:03;9.90;99.90
23089;DHT22;11713;48.506;8.966;2023-01-04T17:45:29;10.00;99.90
23089;DHT22;11713;48.506;8.966;2023-01-04T17:47:55;9.90;99.90
23089;DHT22;11713;48.506;8.966;2023-01-04T17:50:21;9.90;99.90
23089;DHT22;11713;48.506;8.966;2023-01-04T17:52:47;9.90;99.90